Arnoldsville, Georgia
Current Conditions -  °F | °C
As of 10:51 PM on Saturday 22 Nov 2014 (Local Time) from KAHN Reporting Station
Overcast Overcast  
Wind Chill: 50°   Ceiling: 3600
Heat Index: 50°   Visibility: 10mi
Dew Point: 26°   Wind: 8mph
Humidity: 39%   Direction: 70°ENE
Pressure: 30.27"   Gusts: NA
Location:  33.91°N, 83.22°W
Report Text: KAHN 230351Z AUTO 07007KT 10SM OVC036 10/M03 A3027 RMK AO2 SLP252 T01001033 $
Loading
Personal Weather Stations






























Interactive Weather Map New forecast layout! Learn more

10-Day Weather Forecast

Advertisements
Track Severe Weather on mobile